createdAt,value
2024-02-28T00:07:32.377Z,47.00
2024-02-28T00:17:38.138Z,46.70
2024-02-28T00:27:44.243Z,52.20
2024-02-28T00:37:50.149Z,58.90
2024-02-28T00:47:56.574Z,60.60
2024-02-28T00:58:02.685Z,58.90
2024-02-28T01:08:09.860Z,64.70
2024-02-28T01:18:15.931Z,59.70
2024-02-28T01:28:24.314Z,57.50
2024-02-28T01:38:30.438Z,58.40
2024-02-28T01:48:36.538Z,55.40
2024-02-28T01:58:43.196Z,57.60
2024-02-28T02:08:50.017Z,58.60
2024-02-28T02:18:58.292Z,54.10
2024-02-28T02:29:04.570Z,52.70
2024-02-28T02:39:10.855Z,53.40
2024-02-28T02:49:16.910Z,52.20
2024-02-28T02:59:23.356Z,44.20
2024-02-28T03:09:29.556Z,51.30
2024-02-28T03:19:36.754Z,49.30
2024-02-28T03:29:42.770Z,48.90
2024-02-28T03:39:50.945Z,53.10
2024-02-28T03:49:58.686Z,45.00
2024-02-28T04:00:07.316Z,47.40
2024-02-28T04:10:15.895Z,48.20
2024-02-28T04:20:22.125Z,50.80
2024-02-28T04:30:27.937Z,50.70
2024-02-28T04:40:34.150Z,51.70
2024-02-28T04:50:40.071Z,53.30
2024-02-28T05:00:46.100Z,56.20
2024-02-28T05:10:53.308Z,51.90
2024-02-28T05:21:00.071Z,46.30
2024-02-28T05:31:21.318Z,54.60
2024-02-28T05:41:29.707Z,57.00
2024-02-28T05:51:35.939Z,54.30
2024-02-28T06:01:42.401Z,58.60
2024-02-28T06:11:50.393Z,61.70
2024-02-28T06:21:56.307Z,58.10
2024-02-28T06:32:02.298Z,56.60
2024-02-28T06:42:09.719Z,53.00
2024-02-28T07:02:20.242Z,51.80
2024-02-28T07:12:26.677Z,49.80
2024-02-28T07:22:33.330Z,52.90
2024-02-28T07:32:39.372Z,53.30
2024-02-28T07:42:45.634Z,45.40
2024-02-28T07:52:51.597Z,49.40
2024-02-28T08:02:57.893Z,47.80
2024-02-28T08:13:04.075Z,53.10
2024-02-28T08:23:10.559Z,47.00
2024-02-28T08:33:18.424Z,54.90
2024-02-28T08:43:25.016Z,55.00
2024-02-28T08:53:31.171Z,48.90
2024-02-28T09:03:37.263Z,50.10
2024-02-28T09:13:43.349Z,50.30
2024-02-28T09:23:49.436Z,51.10
2024-02-28T09:33:55.556Z,47.90
2024-02-28T09:44:02.416Z,46.30
2024-02-28T09:54:08.854Z,44.90
2024-02-28T10:04:16.173Z,37.90
2024-02-28T10:14:22.553Z,36.70
2024-02-28T10:24:29.444Z,31.80
2024-02-28T10:34:36.577Z,32.30
2024-02-28T10:44:45.871Z,34.00
2024-02-28T10:54:56.599Z,34.20
2024-02-28T11:05:03.287Z,37.40
2024-02-28T11:15:19.649Z,36.00
2024-02-28T11:25:25.900Z,31.20
2024-02-28T11:35:32.654Z,26.20
2024-02-28T11:45:44.851Z,31.60
2024-02-28T11:55:50.908Z,29.50
2024-02-28T12:05:57.546Z,31.00
2024-02-28T12:16:04.841Z,26.70
2024-02-28T12:26:10.950Z,20.80
2024-02-28T12:36:17.002Z,22.80
2024-02-28T12:46:23.326Z,17.70
2024-02-28T12:56:29.350Z,16.60
2024-02-28T13:06:35.466Z,17.00
2024-02-28T13:16:41.324Z,20.40
2024-02-28T13:26:47.781Z,20.30
2024-02-28T13:36:53.806Z,18.50
2024-02-28T13:46:59.949Z,20.10
2024-02-28T13:57:09.156Z,18.30
2024-02-28T14:07:17.722Z,20.50
2024-02-28T14:17:24.145Z,18.10
2024-02-28T14:27:34.301Z,15.40
2024-02-28T14:37:41.074Z,17.60
2024-02-28T14:47:47.460Z,17.20
2024-02-28T14:57:53.838Z,16.50
2024-02-28T15:07:59.992Z,15.60
2024-02-28T15:18:06.232Z,14.40
2024-02-28T15:28:14.500Z,18.90
2024-02-28T15:38:20.610Z,15.80
2024-02-28T15:48:26.649Z,13.60
2024-02-28T15:58:32.572Z,14.70
2024-02-28T16:08:43.461Z,16.00
2024-02-28T16:18:51.713Z,18.20
2024-02-28T16:28:58.622Z,16.10
2024-02-28T16:39:04.817Z,15.30
2024-02-28T16:49:10.797Z,20.50
2024-02-28T16:59:16.889Z,20.60
2024-02-28T17:09:22.908Z,24.50
2024-02-28T17:19:29.180Z,20.50
2024-02-28T17:29:37.227Z,18.00
2024-02-28T17:39:43.261Z,23.30
2024-02-28T17:49:49.331Z,18.30
2024-02-28T17:59:55.467Z,20.90
2024-02-28T18:10:01.483Z,24.40
2024-02-28T18:20:11.555Z,23.30
2024-02-28T18:30:24.532Z,22.40
2024-02-28T18:40:30.658Z,25.40
2024-02-28T18:50:36.722Z,24.60
2024-02-28T19:00:47.823Z,26.70
2024-02-28T19:10:54.728Z,23.40
2024-02-28T19:21:00.532Z,25.30
2024-02-28T19:41:15.280Z,26.00
2024-02-28T19:51:21.585Z,27.00
2024-02-28T20:01:27.946Z,27.80
2024-02-28T20:11:34.258Z,25.70
2024-02-28T20:21:40.441Z,32.00
2024-02-28T20:31:46.471Z,25.20
2024-02-28T20:41:52.678Z,29.30
2024-02-28T20:52:01.108Z,28.70
2024-02-28T21:02:07.648Z,35.40
2024-02-28T21:12:15.070Z,34.60
2024-02-28T21:22:20.989Z,30.60
2024-02-28T21:32:27.156Z,36.80
2024-02-28T21:42:33.262Z,31.20
2024-02-28T21:52:39.416Z,18.40
2024-02-28T22:02:45.207Z,12.00
2024-02-28T22:12:51.859Z,13.40
2024-02-28T22:22:57.900Z,12.30
2024-02-28T22:33:04.945Z,19.30
2024-02-28T22:43:11.664Z,15.90
2024-02-28T22:53:18.313Z,13.20
2024-02-28T23:03:24.525Z,14.40
2024-02-28T23:13:30.760Z,11.00
2024-02-28T23:23:37.263Z,13.90
2024-02-28T23:33:43.393Z,15.60
2024-02-28T23:43:52.833Z,15.30
2024-02-28T23:54:00.276Z,12.00
